Time;durP1;ratioP1;P1;durP2;ratioP2;P2;SDS_P1;SDS_P2;PMS_P1;PMS_P2;Temp;Humidity;BMP_temperature;BMP_pressure;BME280_temperature;BME280_humidity;BME280_pressure;Samples;Min_cycle;Max_cycle;Signal;HPM_P1;HPM_P2
2022/03/26 00:01:21;;;;;;;;;;;5.80;99.90;;;;;;4983608;28;19971;-73
2022/03/26 00:03:47;;;;;;;;;;;5.80;99.90;;;;;;4971667;28;21976;-73
2022/03/26 00:06:13;;;;;;;;;;;5.70;99.90;;;;;;4988756;28;19937;-73
2022/03/26 00:08:38;;;;;;;;;;;5.70;99.90;;;;;;4981023;28;19933;-73
2022/03/26 00:11:04;;;;;;;;;;;5.70;99.90;;;;;;4962607;28;19929;-73
2022/03/26 00:13:29;;;;;;;;;;;5.50;99.90;;;;;;4978858;28;19976;-73
2022/03/26 00:15:55;;;;;;;;;;;5.20;99.90;;;;;;4979745;28;20831;-73
2022/03/26 00:18:21;;;;;;;;;;;5.10;99.90;;;;;;4972073;28;20345;-73
2022/03/26 00:20:46;;;;;;;;;;;4.90;99.90;;;;;;4955100;28;19988;-73
2022/03/26 00:23:12;;;;;;;;;;;4.90;99.90;;;;;;4956093;28;19983;-73
2022/03/26 00:25:38;;;;;;;;;;;4.80;99.90;;;;;;4980751;28;20379;-73
2022/03/26 00:28:03;;;;;;;;;;;4.80;99.90;;;;;;4961784;28;19936;-73
2022/03/26 00:30:29;;;;;;;;;;;4.70;99.90;;;;;;4976445;28;19983;-73
2022/03/26 00:32:55;;;;;;;;;;;4.60;99.90;;;;;;4973101;28;19929;-73
2022/03/26 00:35:21;;;;;;;;;;;4.60;99.90;;;;;;4975113;28;20524;-73
2022/03/26 00:37:46;;;;;;;;;;;4.60;99.90;;;;;;4976767;28;20201;-73
2022/03/26 00:40:13;;;;;;;;;;;4.60;99.90;;;;;;4975689;28;19929;-73
2022/03/26 00:42:39;;;;;;;;;;;4.60;99.90;;;;;;4959362;28;21486;-73
2022/03/26 00:45:06;;;;;;;;;;;4.70;99.90;;;;;;4957694;28;19961;-73
2022/03/26 00:47:31;;;;;;;;;;;4.70;99.90;;;;;;4938828;28;19952;-73
2022/03/26 00:49:57;;;;;;;;;;;4.70;99.90;;;;;;4959104;28;20767;-73
2022/03/26 00:52:23;;;;;;;;;;;4.70;99.90;;;;;;4975844;28;20303;-73
2022/03/26 00:54:49;;;;;;;;;;;4.80;99.90;;;;;;4973439;28;19936;-73
2022/03/26 00:57:16;;;;;;;;;;;4.80;99.90;;;;;;4977536;28;19929;-73
2022/03/26 00:59:42;;;;;;;;;;;4.70;99.90;;;;;;4974907;28;20063;-73
2022/03/26 01:02:08;;;;;;;;;;;4.80;99.90;;;;;;4981422;28;19925;-73
2022/03/26 01:04:33;;;;;;;;;;;4.70;99.90;;;;;;4976686;28;20775;-73
2022/03/26 01:06:59;;;;;;;;;;;4.70;99.90;;;;;;4962245;28;19933;-73
2022/03/26 01:09:24;;;;;;;;;;;4.70;99.90;;;;;;4979685;28;19952;-73
2022/03/26 01:11:50;;;;;;;;;;;4.70;99.90;;;;;;4973832;28;20515;-73
2022/03/26 01:14:15;;;;;;;;;;;4.70;99.90;;;;;;4980082;28;19962;-73
2022/03/26 01:16:41;;;;;;;;;;;4.80;99.90;;;;;;4981150;28;20023;-73
2022/03/26 01:19:07;;;;;;;;;;;4.80;99.90;;;;;;4978281;28;20622;-73
2022/03/26 01:21:32;;;;;;;;;;;4.80;99.90;;;;;;4964999;28;20238;-73
2022/03/26 01:23:58;;;;;;;;;;;4.70;99.90;;;;;;4971976;28;20023;-73
2022/03/26 01:26:24;;;;;;;;;;;4.70;99.90;;;;;;4960825;28;19952;-73
2022/03/26 01:28:50;;;;;;;;;;;4.60;99.90;;;;;;4959182;28;20579;-73
2022/03/26 01:31:19;;;;;;;;;;;4.60;99.90;;;;;;4962893;28;19933;-73
2022/03/26 01:33:48;;;;;;;;;;;4.50;99.90;;;;;;4980814;28;19929;-73
2022/03/26 01:36:14;;;;;;;;;;;4.50;99.90;;;;;;4961983;28;19994;-73
2022/03/26 01:38:39;;;;;;;;;;;4.60;99.90;;;;;;4961120;28;19933;-73
2022/03/26 01:41:05;;;;;;;;;;;4.60;99.90;;;;;;4977829;28;19936;-73
2022/03/26 01:43:30;;;;;;;;;;;4.60;99.90;;;;;;4959780;28;20008;-72
2022/03/26 01:45:56;;;;;;;;;;;4.60;99.90;;;;;;4961768;28;19929;-73
2022/03/26 01:48:23;;;;;;;;;;;4.50;99.90;;;;;;4978266;28;19936;-72
2022/03/26 01:50:48;;;;;;;;;;;4.30;99.90;;;;;;4962100;28;19929;-73
2022/03/26 01:53:14;;;;;;;;;;;4.20;99.90;;;;;;4961567;28;19940;-72
2022/03/26 01:55:40;;;;;;;;;;;4.00;99.90;;;;;;4978817;28;19933;-73
2022/03/26 01:58:05;;;;;;;;;;;3.90;99.90;;;;;;4962154;28;20510;-73
2022/03/26 02:00:31;;;;;;;;;;;3.80;99.90;;;;;;4958695;28;19925;-73
2022/03/26 02:02:56;;;;;;;;;;;3.80;99.90;;;;;;4955480;28;19939;-72
2022/03/26 02:05:22;;;;;;;;;;;3.80;99.90;;;;;;4978686;28;19940;-72
2022/03/26 02:07:49;;;;;;;;;;;3.70;99.90;;;;;;4960450;28;20622;-73
2022/03/26 02:10:15;;;;;;;;;;;3.60;99.90;;;;;;4962966;28;19933;-73
2022/03/26 02:12:41;;;;;;;;;;;3.50;99.90;;;;;;4956225;28;19929;-72
2022/03/26 02:15:08;;;;;;;;;;;3.50;99.90;;;;;;4969749;28;19933;-72
2022/03/26 02:17:34;;;;;;;;;;;3.60;99.90;;;;;;4973365;28;19937;-72
2022/03/26 02:20:00;;;;;;;;;;;3.60;99.90;;;;;;4976573;28;20930;-73
2022/03/26 02:22:27;;;;;;;;;;;3.50;99.90;;;;;;4971772;28;19939;-72
2022/03/26 02:24:53;;;;;;;;;;;3.40;99.90;;;;;;4975697;28;19979;-72
2022/03/26 02:27:19;;;;;;;;;;;3.40;99.90;;;;;;4976986;28;19948;-72
2022/03/26 02:29:44;;;;;;;;;;;3.50;99.90;;;;;;4971751;28;20672;-72
2022/03/26 02:32:10;;;;;;;;;;;3.60;99.90;;;;;;4976726;28;20954;-73
2022/03/26 02:34:35;;;;;;;;;;;3.70;99.90;;;;;;4977291;28;19941;-72
2022/03/26 02:37:01;;;;;;;;;;;3.70;99.90;;;;;;4973973;28;20295;-73
2022/03/26 02:39:27;;;;;;;;;;;3.60;99.90;;;;;;4976683;28;19933;-72
2022/03/26 02:41:53;;;;;;;;;;;3.60;99.90;;;;;;4973356;28;19981;-72
2022/03/26 02:44:19;;;;;;;;;;;3.60;99.90;;;;;;4973949;28;20043;-72
2022/03/26 02:46:46;;;;;;;;;;;3.60;99.90;;;;;;4988275;28;19976;-72
2022/03/26 02:49:15;;;;;;;;;;;3.50;99.90;;;;;;4991743;28;20467;-72
2022/03/26 02:51:41;;;;;;;;;;;3.40;99.90;;;;;;4980127;28;20034;-72
2022/03/26 02:54:18;;;;;;;;;;;3.20;99.90;;;;;;4993830;28;20418;-72
2022/03/26 02:56:50;;;;;;;;;;;3.20;99.90;;;;;;4994193;28;19933;-72
2022/03/26 02:59:16;;;;;;;;;;;3.20;99.90;;;;;;4979008;28;19933;-72
2022/03/26 03:01:42;;;;;;;;;;;3.40;99.90;;;;;;4993605;28;19960;-72
2022/03/26 03:04:08;;;;;;;;;;;3.40;99.90;;;;;;4996828;28;20263;-72
2022/03/26 03:06:34;;;;;;;;;;;3.40;99.90;;;;;;4962368;28;19933;-72
2022/03/26 03:09:01;;;;;;;;;;;3.50;99.90;;;;;;4974225;28;19940;-72
2022/03/26 03:11:27;;;;;;;;;;;3.50;99.90;;;;;;4982546;28;20020;-72
2022/03/26 03:13:52;;;;;;;;;;;3.50;99.90;;;;;;4993308;28;20784;-72
2022/03/26 03:16:18;;;;;;;;;;;3.50;99.90;;;;;;4997336;28;19929;-72
2022/03/26 03:18:44;;;;;;;;;;;3.40;99.90;;;;;;4976936;28;19935;-72
2022/03/26 03:21:09;;;;;;;;;;;3.30;99.90;;;;;;4983427;28;19937;-72
2022/03/26 03:23:35;;;;;;;;;;;3.30;99.90;;;;;;4976093;28;20126;-72
2022/03/26 03:26:01;;;;;;;;;;;3.20;99.90;;;;;;4994742;28;19952;-72
2022/03/26 03:28:26;;;;;;;;;;;3.20;99.90;;;;;;4975947;28;19929;-72
2022/03/26 03:30:52;;;;;;;;;;;3.20;99.90;;;;;;4996348;28;19929;-72
2022/03/26 03:33:17;;;;;;;;;;;3.30;99.90;;;;;;4995094;28;19929;-72
2022/03/26 03:35:43;;;;;;;;;;;3.20;99.90;;;;;;4978593;28;19940;-72
2022/03/26 03:38:08;;;;;;;;;;;3.20;99.90;;;;;;4996374;28;19960;-72
2022/03/26 03:40:34;;;;;;;;;;;3.10;99.90;;;;;;4978218;28;19929;-72
2022/03/26 03:43:00;;;;;;;;;;;3.10;99.90;;;;;;4995520;28;19934;-72
2022/03/26 03:45:25;;;;;;;;;;;3.00;99.90;;;;;;4974552;28;19975;-72
2022/03/26 03:47:51;;;;;;;;;;;3.10;99.90;;;;;;4962908;28;19964;-72
2022/03/26 03:50:16;;;;;;;;;;;3.10;99.90;;;;;;4992206;28;19929;-72
2022/03/26 03:52:42;;;;;;;;;;;3.20;99.90;;;;;;4976404;28;20049;-72
2022/03/26 03:55:08;;;;;;;;;;;3.20;99.90;;;;;;4980374;28;20818;-72
2022/03/26 03:57:34;;;;;;;;;;;3.20;99.90;;;;;;4980920;28;19941;-72
2022/03/26 04:00:00;;;;;;;;;;;3.30;99.90;;;;;;4976190;28;19929;-72
2022/03/26 04:02:26;;;;;;;;;;;3.30;99.90;;;;;;4990181;28;19929;-72
2022/03/26 04:04:51;;;;;;;;;;;3.40;99.90;;;;;;4993743;28;19939;-72
2022/03/26 04:07:17;;;;;;;;;;;3.50;99.90;;;;;;4978705;28;20683;-72
2022/03/26 04:09:43;;;;;;;;;;;3.50;99.90;;;;;;4978201;28;19929;-72
2022/03/26 04:12:08;;;;;;;;;;;3.50;99.90;;;;;;4996394;28;19950;-73
2022/03/26 04:14:35;;;;;;;;;;;3.40;99.90;;;;;;4992777;28;20154;-72
2022/03/26 04:17:02;;;;;;;;;;;3.40;99.90;;;;;;4975805;28;20465;-72
2022/03/26 04:19:27;;;;;;;;;;;3.40;99.90;;;;;;4969924;28;19928;-72
2022/03/26 04:21:54;;;;;;;;;;;3.40;99.90;;;;;;4978455;28;19971;-73
2022/03/26 04:24:20;;;;;;;;;;;3.50;99.90;;;;;;4976923;28;19944;-72
2022/03/26 04:26:46;;;;;;;;;;;3.40;99.90;;;;;;4995771;28;19929;-72
2022/03/26 04:29:11;;;;;;;;;;;3.40;99.90;;;;;;4976943;28;19929;-72
2022/03/26 04:31:37;;;;;;;;;;;3.30;99.90;;;;;;4973268;28;19940;-72
2022/03/26 04:34:03;;;;;;;;;;;3.20;99.90;;;;;;4994531;28;19929;-72
2022/03/26 04:36:29;;;;;;;;;;;3.10;99.90;;;;;;4969955;28;19987;-72
2022/03/26 04:38:56;;;;;;;;;;;3.10;99.90;;;;;;4973757;28;19983;-72
2022/03/26 04:41:21;;;;;;;;;;;3.00;99.90;;;;;;4986144;28;20395;-72
2022/03/26 04:43:47;;;;;;;;;;;2.90;99.90;;;;;;4975086;28;19956;-72
2022/03/26 04:46:12;;;;;;;;;;;2.90;99.90;;;;;;4977576;28;20949;-72
2022/03/26 04:48:38;;;;;;;;;;;2.90;99.90;;;;;;4973930;28;19990;-72
2022/03/26 04:51:04;;;;;;;;;;;2.70;99.90;;;;;;4991641;28;19929;-72
2022/03/26 04:53:29;;;;;;;;;;;2.70;99.90;;;;;;4970716;28;19930;-72
2022/03/26 04:55:55;;;;;;;;;;;2.60;99.90;;;;;;4992501;28;19933;-72
2022/03/26 04:58:21;;;;;;;;;;;2.60;99.90;;;;;;4977932;28;19932;-72
2022/03/26 05:00:46;;;;;;;;;;;2.50;99.90;;;;;;4974998;28;20456;-72
2022/03/26 05:03:12;;;;;;;;;;;2.60;99.90;;;;;;4989302;28;20021;-72
2022/03/26 05:05:38;;;;;;;;;;;2.70;99.90;;;;;;4974291;28;19944;-72
2022/03/26 05:08:03;;;;;;;;;;;2.70;99.90;;;;;;4990155;28;19976;-72
2022/03/26 05:10:29;;;;;;;;;;;2.80;99.90;;;;;;4974185;28;19933;-73
2022/03/26 05:12:55;;;;;;;;;;;2.70;99.90;;;;;;4978973;28;20390;-70
2022/03/26 05:15:21;;;;;;;;;;;2.90;99.90;;;;;;4977605;28;20047;-72
2022/03/26 05:17:47;;;;;;;;;;;2.90;99.90;;;;;;4968082;28;20040;-73
2022/03/26 05:20:13;;;;;;;;;;;2.90;99.90;;;;;;4975839;28;19933;-73
2022/03/26 05:22:40;;;;;;;;;;;3.00;99.90;;;;;;4973322;28;20405;-72
2022/03/26 05:25:06;;;;;;;;;;;3.00;99.90;;;;;;4991747;28;19929;-72
2022/03/26 05:27:32;;;;;;;;;;;3.00;99.90;;;;;;4975504;28;19928;-72
2022/03/26 05:29:58;;;;;;;;;;;3.00;99.90;;;;;;4975530;28;20750;-72
2022/03/26 05:32:23;;;;;;;;;;;3.10;99.90;;;;;;4991539;28;19936;-72
2022/03/26 05:34:50;;;;;;;;;;;3.00;99.90;;;;;;4976583;28;19980;-72
2022/03/26 05:37:16;;;;;;;;;;;3.10;99.90;;;;;;4974034;28;19975;-72
2022/03/26 05:39:42;;;;;;;;;;;3.20;99.90;;;;;;4991051;28;20487;-72
2022/03/26 05:42:07;;;;;;;;;;;3.20;99.90;;;;;;4990775;28;20625;-71
2022/03/26 05:44:33;;;;;;;;;;;3.30;99.90;;;;;;4978455;28;19929;-73
2022/03/26 05:47:00;;;;;;;;;;;3.50;99.90;;;;;;4966335;28;19939;-72
2022/03/26 05:49:26;;;;;;;;;;;3.90;99.90;;;;;;4960749;28;19936;-72
2022/03/26 05:51:51;;;;;;;;;;;4.20;99.90;;;;;;4945797;28;19964;-72
2022/03/26 05:54:17;;;;;;;;;;;4.40;99.90;;;;;;4959716;28;19947;-74
2022/03/26 05:56:51;;;;;;;;;;;4.10;99.90;;;;;;4973700;28;19975;-73
2022/03/26 05:59:21;;;;;;;;;;;4.20;99.90;;;;;;4976382;28;20283;-72
2022/03/26 06:01:47;;;;;;;;;;;4.60;99.90;;;;;;4975418;28;19980;-72
2022/03/26 06:04:13;;;;;;;;;;;4.30;99.90;;;;;;4978018;28;20086;-72
2022/03/26 06:06:38;;;;;;;;;;;4.40;99.90;;;;;;4979565;28;20635;-72
2022/03/26 06:09:04;;;;;;;;;;;4.50;99.90;;;;;;4956948;28;19944;-72
2022/03/26 06:11:29;;;;;;;;;;;4.70;99.90;;;;;;4975830;28;20604;-72
2022/03/26 06:13:55;;;;;;;;;;;4.70;99.90;;;;;;4957800;28;20415;-72
2022/03/26 06:16:21;;;;;;;;;;;4.70;99.90;;;;;;4957771;28;19933;-73
2022/03/26 06:18:47;;;;;;;;;;;4.80;99.90;;;;;;4958439;28;20012;-73
2022/03/26 06:21:13;;;;;;;;;;;4.80;99.90;;;;;;4961130;28;20730;-72
2022/03/26 06:23:39;;;;;;;;;;;5.00;99.90;;;;;;4976069;28;19926;-72
2022/03/26 06:26:04;;;;;;;;;;;5.30;99.90;;;;;;4977278;28;19930;-72
2022/03/26 06:28:30;;;;;;;;;;;5.50;99.90;;;;;;4940268;28;19929;-72
2022/03/26 06:30:56;;;;;;;;;;;5.60;99.90;;;;;;4966416;28;19936;-72
2022/03/26 06:33:22;;;;;;;;;;;5.80;99.90;;;;;;4950361;28;19940;-73
2022/03/26 06:35:48;;;;;;;;;;;5.90;99.90;;;;;;4969203;28;19968;-72
2022/03/26 06:38:14;;;;;;;;;;;6.00;99.90;;;;;;4957981;28;20169;-72
2022/03/26 06:40:39;;;;;;;;;;;6.10;99.90;;;;;;4992762;28;20055;-72
2022/03/26 06:43:05;;;;;;;;;;;6.30;99.90;;;;;;4971519;28;19936;-73
2022/03/26 06:45:31;;;;;;;;;;;6.40;99.90;;;;;;4992247;28;20450;-71
2022/03/26 06:47:57;;;;;;;;;;;6.60;99.90;;;;;;4986879;28;19940;-71
2022/03/26 06:50:23;;;;;;;;;;;6.60;99.90;;;;;;4978654;28;19929;-72
2022/03/26 06:52:48;;;;;;;;;;;6.70;99.90;;;;;;4975044;28;19929;-72
2022/03/26 06:55:14;;;;;;;;;;;6.90;99.90;;;;;;4977377;28;19944;-72
2022/03/26 06:57:41;;;;;;;;;;;6.90;99.90;;;;;;4997559;28;20262;-72
2022/03/26 07:00:09;;;;;;;;;;;7.00;99.90;;;;;;4976670;28;19999;-72
2022/03/26 07:02:35;;;;;;;;;;;7.20;99.90;;;;;;4977684;28;20446;-72
2022/03/26 07:05:02;;;;;;;;;;;7.40;99.90;;;;;;4977410;28;20378;-73
2022/03/26 07:07:27;;;;;;;;;;;7.50;99.90;;;;;;4978595;28;19936;-73
2022/03/26 07:09:53;;;;;;;;;;;7.60;99.90;;;;;;4980035;28;19933;-73
2022/03/26 07:12:18;;;;;;;;;;;7.80;99.90;;;;;;4992221;28;19929;-73
2022/03/26 07:14:45;;;;;;;;;;;7.90;99.90;;;;;;4978618;28;20043;-73
2022/03/26 07:17:10;;;;;;;;;;;8.10;99.90;;;;;;4975780;28;19933;-73
2022/03/26 07:19:36;;;;;;;;;;;8.30;99.90;;;;;;4993264;28;19944;-72
2022/03/26 07:22:01;;;;;;;;;;;8.50;99.90;;;;;;4965046;28;19933;-73
2022/03/26 07:24:27;;;;;;;;;;;8.60;99.90;;;;;;4974388;28;19968;-73
2022/03/26 07:26:53;;;;;;;;;;;8.80;99.90;;;;;;4978309;28;19936;-73
2022/03/26 07:29:18;;;;;;;;;;;8.90;99.90;;;;;;4993948;28;19935;-73
2022/03/26 07:31:44;;;;;;;;;;;9.10;99.90;;;;;;4983879;28;20935;-73
2022/03/26 07:34:11;;;;;;;;;;;9.30;99.90;;;;;;4999682;28;19933;-71
2022/03/26 07:36:36;;;;;;;;;;;9.50;99.90;;;;;;4993910;28;20319;-73
2022/03/26 07:39:02;;;;;;;;;;;9.50;99.90;;;;;;4990667;28;19933;-73
2022/03/26 07:41:28;;;;;;;;;;;9.60;99.90;;;;;;4979224;28;19929;-73
2022/03/26 07:43:53;;;;;;;;;;;9.80;99.90;;;;;;4996258;28;19940;-73
2022/03/26 07:46:19;;;;;;;;;;;9.90;99.90;;;;;;4997255;28;20495;-73
2022/03/26 07:48:45;;;;;;;;;;;10.20;99.90;;;;;;4975206;28;19970;-73
2022/03/26 07:51:10;;;;;;;;;;;10.20;99.90;;;;;;4984278;28;19944;-73
2022/03/26 07:53:36;;;;;;;;;;;10.40;99.90;;;;;;4979485;28;20020;-73
2022/03/26 07:56:02;;;;;;;;;;;10.70;99.90;;;;;;4982298;28;20313;-73
2022/03/26 07:58:27;;;;;;;;;;;10.90;99.90;;;;;;4975165;28;19928;-73
2022/03/26 08:00:53;;;;;;;;;;;11.20;99.90;;;;;;4974223;28;19933;-74
2022/03/26 08:03:19;;;;;;;;;;;11.20;99.90;;;;;;4974543;28;20105;-73
2022/03/26 08:05:44;;;;;;;;;;;11.50;99.90;;;;;;4990479;28;20404;-73
2022/03/26 08:08:10;;;;;;;;;;;11.60;99.90;;;;;;4965382;28;19933;-73
2022/03/26 08:10:36;;;;;;;;;;;11.60;99.90;;;;;;4965168;28;19940;-73
2022/03/26 08:13:02;;;;;;;;;;;11.80;99.90;;;;;;4973146;28;19929;-73
2022/03/26 08:15:27;;;;;;;;;;;12.00;99.90;;;;;;4984373;28;19933;-73
2022/03/26 08:17:53;;;;;;;;;;;12.20;99.90;;;;;;4975740;28;19987;-73
2022/03/26 08:20:18;;;;;;;;;;;12.50;99.90;;;;;;4995102;28;19940;-73
2022/03/26 08:22:44;;;;;;;;;;;12.70;99.90;;;;;;4991640;28;19995;-73
2022/03/26 08:25:10;;;;;;;;;;;12.70;99.90;;;;;;4975702;28;20366;-73
2022/03/26 08:27:36;;;;;;;;;;;13.10;99.90;;;;;;4979025;28;20028;-73
2022/03/26 08:30:03;;;;;;;;;;;13.50;99.90;;;;;;4995775;28;20205;-73
2022/03/26 08:32:28;;;;;;;;;;;13.70;99.90;;;;;;4979096;28;19929;-72
2022/03/26 08:34:54;;;;;;;;;;;14.00;99.90;;;;;;4983215;28;20471;-73
2022/03/26 08:37:19;;;;;;;;;;;14.00;99.90;;;;;;4962921;28;19960;-73
2022/03/26 08:39:45;;;;;;;;;;;14.20;99.90;;;;;;4964495;28;19990;-73
2022/03/26 08:42:11;;;;;;;;;;;14.40;99.90;;;;;;4990486;28;19929;-73
2022/03/26 08:44:36;;;;;;;;;;;14.50;99.90;;;;;;4977388;28;20051;-73
2022/03/26 08:47:02;;;;;;;;;;;14.40;99.90;;;;;;4993249;28;20331;-73
2022/03/26 08:49:28;;;;;;;;;;;14.10;89.90;;;;;;4977435;28;19937;-73
2022/03/26 08:51:54;;;;;;;;;;;14.30;94.30;;;;;;4974484;28;19929;-73
2022/03/26 08:54:20;;;;;;;;;;;14.30;99.90;;;;;;4989942;28;19944;-73
2022/03/26 08:56:45;;;;;;;;;;;14.50;94.10;;;;;;4962172;28;20342;-73
2022/03/26 08:59:11;;;;;;;;;;;14.40;94.60;;;;;;4991746;28;19935;-73
2022/03/26 09:01:36;;;;;;;;;;;14.80;96.80;;;;;;4977414;28;20205;-73
2022/03/26 09:04:02;;;;;;;;;;;15.00;91.20;;;;;;4986959;28;19964;-73
2022/03/26 09:06:29;;;;;;;;;;;15.10;91.20;;;;;;4969157;28;19933;-74
2022/03/26 09:08:55;;;;;;;;;;;15.50;83.10;;;;;;4969324;28;20091;-73
2022/03/26 09:11:20;;;;;;;;;;;15.50;80.10;;;;;;4964514;28;19940;-72
2022/03/26 09:13:46;;;;;;;;;;;15.40;77.00;;;;;;4988815;28;19929;-74
2022/03/26 09:16:11;;;;;;;;;;;15.30;76.10;;;;;;4979640;28;19929;-74
2022/03/26 09:18:37;;;;;;;;;;;15.60;76.10;;;;;;4958962;28;19979;-74
2022/03/26 09:21:03;;;;;;;;;;;15.80;79.40;;;;;;4971488;28;20396;-74
2022/03/26 09:23:28;;;;;;;;;;;15.80;71.90;;;;;;4974363;28;19929;-74
2022/03/26 09:25:54;;;;;;;;;;;15.90;76.20;;;;;;4962571;28;19937;-74
2022/03/26 09:28:20;;;;;;;;;;;15.70;70.40;;;;;;4971426;28;20016;-74
2022/03/26 09:30:45;;;;;;;;;;;15.90;69.30;;;;;;4971095;28;19933;-74
2022/03/26 09:33:11;;;;;;;;;;;16.00;67.20;;;;;;4974862;28;19929;-74
2022/03/26 09:35:36;;;;;;;;;;;16.30;68.30;;;;;;4955029;28;20438;-74
2022/03/26 09:38:02;;;;;;;;;;;16.20;68.40;;;;;;4978747;28;20363;-74
2022/03/26 09:40:28;;;;;;;;;;;16.50;68.70;;;;;;4956159;28;20022;-74
2022/03/26 09:42:59;;;;;;;;;;;16.70;66.70;;;;;;4965343;28;20393;-74
2022/03/26 09:45:25;;;;;;;;;;;16.70;68.00;;;;;;4967864;28;19964;-74
2022/03/26 09:47:51;;;;;;;;;;;16.40;66.10;;;;;;4985159;28;19934;-74
2022/03/26 09:50:19;;;;;;;;;;;16.20;64.90;;;;;;4974077;28;19955;-74
2022/03/26 09:52:44;;;;;;;;;;;16.20;64.40;;;;;;4975370;28;19979;-74
2022/03/26 09:55:11;;;;;;;;;;;16.30;65.40;;;;;;4985291;28;19941;-74
2022/03/26 09:57:37;;;;;;;;;;;16.70;69.00;;;;;;4967000;28;19934;-74
2022/03/26 10:00:03;;;;;;;;;;;16.70;64.50;;;;;;4989359;28;19995;-75
2022/03/26 10:02:29;;;;;;;;;;;16.60;65.00;;;;;;4966728;28;20083;-74
2022/03/26 10:04:54;;;;;;;;;;;16.90;67.80;;;;;;4976057;28;19967;-74
2022/03/26 10:07:28;;;;;;;;;;;17.10;65.90;;;;;;4976502;28;19933;-74
2022/03/26 10:09:55;;;;;;;;;;;17.10;66.00;;;;;;4971419;28;19933;-74
2022/03/26 10:12:21;;;;;;;;;;;17.30;67.90;;;;;;4974995;28;19965;-74
2022/03/26 10:14:48;;;;;;;;;;;17.40;64.50;;;;;;4975878;28;19940;-74
2022/03/26 10:17:13;;;;;;;;;;;17.40;64.20;;;;;;4979093;28;19987;-74
2022/03/26 10:19:43;;;;;;;;;;;17.60;66.50;;;;;;4975815;28;20334;-74
2022/03/26 10:22:12;;;;;;;;;;;17.30;64.80;;;;;;4997269;28;19933;-74
2022/03/26 10:24:42;;;;;;;;;;;17.70;66.90;;;;;;4977368;28;20270;-73
2022/03/26 10:27:11;;;;;;;;;;;17.60;64.30;;;;;;4993904;28;19929;-74
2022/03/26 10:29:50;;;;;;;;;;;17.30;64.70;;;;;;4972132;28;19968;-73
2022/03/26 10:35:08;;;;;;;;;;;18.00;68.40;;;;;;4992525;28;19939;-73
2022/03/26 10:37:56;;;;;;;;;;;18.10;71.70;;;;;;4991441;28;20566;-73
2022/03/26 10:40:41;;;;;;;;;;;17.70;70.40;;;;;;4975674;28;19933;-73
2022/03/26 10:43:09;;;;;;;;;;;17.90;70.30;;;;;;4971763;28;19979;-73
2022/03/26 10:45:37;;;;;;;;;;;17.60;72.10;;;;;;4974689;28;19925;-73
2022/03/26 10:48:09;;;;;;;;;;;17.70;70.50;;;;;;4992263;28;20191;-73
2022/03/26 10:50:35;;;;;;;;;;;17.40;72.40;;;;;;4976167;28;19937;-73
2022/03/26 10:53:05;;;;;;;;;;;17.80;73.60;;;;;;4960591;28;19939;-73
2022/03/26 10:55:31;;;;;;;;;;;18.20;71.90;;;;;;4978795;28;19935;-73
2022/03/26 10:57:57;;;;;;;;;;;17.90;71.20;;;;;;4991596;28;19988;-73
2022/03/26 11:00:23;;;;;;;;;;;17.80;69.70;;;;;;4970057;28;20047;-73
2022/03/26 11:02:48;;;;;;;;;;;17.90;68.50;;;;;;4980174;28;19937;-73
2022/03/26 11:05:14;;;;;;;;;;;18.00;70.80;;;;;;4995710;28;19980;-73
2022/03/26 11:07:43;;;;;;;;;;;18.00;73.70;;;;;;4973665;28;20127;-74
2022/03/26 11:10:12;;;;;;;;;;;18.30;70.70;;;;;;4978023;28;20677;-74
2022/03/26 11:12:45;;;;;;;;;;;18.10;72.00;;;;;;4972551;28;19929;-73
2022/03/26 11:15:14;;;;;;;;;;;18.70;71.40;;;;;;4974381;28;20020;-73
2022/03/26 11:17:43;;;;;;;;;;;18.70;69.80;;;;;;4977504;28;19933;-73
2022/03/26 11:20:23;;;;;;;;;;;18.50;69.10;;;;;;4978738;28;19960;-74
2022/03/26 11:22:51;;;;;;;;;;;18.40;68.40;;;;;;4989993;28;19929;-74
2022/03/26 11:25:26;;;;;;;;;;;18.60;74.80;;;;;;4992339;28;20268;-74
2022/03/26 11:27:52;;;;;;;;;;;18.70;70.70;;;;;;4980593;28;19929;-74
2022/03/26 11:30:38;;;;;;;;;;;18.60;71.30;;;;;;4976574;28;20434;-74
2022/03/26 11:33:10;;;;;;;;;;;18.60;68.00;;;;;;4951084;28;19929;-75
2022/03/26 11:35:48;;;;;;;;;;;18.40;69.50;;;;;;4972521;28;19940;-75
2022/03/26 11:38:14;;;;;;;;;;;18.50;70.50;;;;;;4995847;28;20386;-76
2022/03/26 11:40:49;;;;;;;;;;;19.00;67.90;;;;;;4997849;28;20075;-74
2022/03/26 11:43:19;;;;;;;;;;;18.50;67.50;;;;;;4994614;28;19982;-74
2022/03/26 11:51:21;;;;;;;;;;;18.50;65.70;;;;;;4990967;28;19933;-75
2022/03/26 11:53:49;;;;;;;;;;;18.90;69.70;;;;;;4973901;28;19937;-74
2022/03/26 11:56:21;;;;;;;;;;;19.00;66.10;;;;;;4990707;28;20849;-75
2022/03/26 11:59:07;;;;;;;;;;;18.40;65.40;;;;;;4971189;28;20907;-76
2022/03/26 12:01:37;;;;;;;;;;;18.60;68.00;;;;;;4975829;28;19996;-74
2022/03/26 12:04:10;;;;;;;;;;;18.70;65.90;;;;;;4981125;28;20132;-74
2022/03/26 12:06:54;;;;;;;;;;;18.60;65.00;;;;;;4945130;28;19934;-74
2022/03/26 12:09:26;;;;;;;;;;;18.50;66.40;;;;;;4988964;28;19929;-74
2022/03/26 12:12:14;;;;;;;;;;;19.10;66.00;;;;;;4980276;28;19933;-74
2022/03/26 12:14:59;;;;;;;;;;;18.90;66.70;;;;;;4996084;28;19933;-74
2022/03/26 12:17:46;;;;;;;;;;;19.10;66.30;;;;;;4980525;28;19933;-74
2022/03/26 12:20:23;;;;;;;;;;;19.40;67.80;;;;;;4984121;28;19989;-75
2022/03/26 12:23:06;;;;;;;;;;;19.60;65.60;;;;;;5002180;28;19965;-75
2022/03/26 12:25:36;;;;;;;;;;;19.40;66.00;;;;;;4996615;28;19936;-74
2022/03/26 12:28:02;;;;;;;;;;;18.90;66.30;;;;;;4997879;28;19929;-76
2022/03/26 12:30:28;;;;;;;;;;;19.00;63.50;;;;;;4997294;28;20383;-75
2022/03/26 12:32:55;;;;;;;;;;;19.20;64.00;;;;;;5002031;28;20291;-75
2022/03/26 12:35:20;;;;;;;;;;;19.10;64.90;;;;;;5000177;28;19987;-75
2022/03/26 12:37:50;;;;;;;;;;;19.40;65.50;;;;;;4982454;28;19937;-75
2022/03/26 12:40:16;;;;;;;;;;;19.00;64.70;;;;;;4998103;28;20536;-75
2022/03/26 12:42:42;;;;;;;;;;;19.20;65.30;;;;;;4983401;28;19936;-75
2022/03/26 12:45:17;;;;;;;;;;;19.60;67.50;;;;;;5006481;28;19929;-75
2022/03/26 12:47:46;;;;;;;;;;;20.00;66.50;;;;;;4978446;28;19929;-75
2022/03/26 12:50:16;;;;;;;;;;;19.80;64.10;;;;;;4979595;28;19929;-75
2022/03/26 12:52:42;;;;;;;;;;;19.90;65.60;;;;;;4997038;28;20287;-75
2022/03/26 12:55:08;;;;;;;;;;;19.50;63.20;;;;;;5002758;28;19929;-75
2022/03/26 13:00:24;;;;;;;;;;;19.40;65.20;;;;;;4972625;28;19926;-75
2022/03/26 13:03:00;;;;;;;;;;;19.20;62.80;;;;;;4973330;28;20438;-75
2022/03/26 13:05:27;;;;;;;;;;;19.80;63.70;;;;;;4996574;28;19940;-75
2022/03/26 13:07:56;;;;;;;;;;;19.30;63.00;;;;;;5001699;28;19930;-75
2022/03/26 13:10:48;;;;;;;;;;;20.00;64.60;;;;;;4973597;28;19929;-74
2022/03/26 13:13:14;;;;;;;;;;;19.90;64.90;;;;;;4974117;28;20276;-75
2022/03/26 13:15:39;;;;;;;;;;;19.80;62.80;;;;;;5003214;28;19987;-75
2022/03/26 13:18:06;;;;;;;;;;;19.50;66.00;;;;;;4975390;28;19987;-75
2022/03/26 13:20:33;;;;;;;;;;;19.20;65.80;;;;;;4992934;28;19929;-75
2022/03/26 13:23:02;;;;;;;;;;;19.90;68.30;;;;;;4977311;28;20020;-75
2022/03/26 13:25:38;;;;;;;;;;;19.80;65.00;;;;;;4989451;28;19951;-75
2022/03/26 13:28:17;;;;;;;;;;;19.60;64.80;;;;;;4983109;28;19929;-75
2022/03/26 13:30:44;;;;;;;;;;;19.30;65.50;;;;;;4969637;28;19940;-75
2022/03/26 13:33:12;;;;;;;;;;;19.50;66.10;;;;;;4976106;28;19980;-75
2022/03/26 13:35:39;;;;;;;;;;;19.30;63.30;;;;;;4998965;28;19936;-75
2022/03/26 13:38:09;;;;;;;;;;;19.30;64.90;;;;;;4982181;28;19987;-73
2022/03/26 13:40:35;;;;;;;;;;;19.60;64.80;;;;;;4982248;28;19969;-75
2022/03/26 13:43:01;;;;;;;;;;;19.70;65.60;;;;;;5002430;28;19940;-75
2022/03/26 13:45:27;;;;;;;;;;;19.60;65.20;;;;;;5000240;28;20383;-75
2022/03/26 13:47:56;;;;;;;;;;;19.70;65.40;;;;;;4999774;28;19933;-75
2022/03/26 13:50:22;;;;;;;;;;;19.80;64.60;;;;;;4979504;28;19941;-74
2022/03/26 13:52:50;;;;;;;;;;;19.50;63.00;;;;;;4973691;28;20065;-75
2022/03/26 13:55:24;;;;;;;;;;;19.20;62.70;;;;;;4976030;28;19934;-75
2022/03/26 13:57:50;;;;;;;;;;;19.60;64.50;;;;;;5002679;28;20060;-75
2022/03/26 14:00:15;;;;;;;;;;;20.10;65.20;;;;;;5002271;28;19929;-76
2022/03/26 14:02:41;;;;;;;;;;;19.90;63.30;;;;;;4973165;28;20019;-75
2022/03/26 14:05:26;;;;;;;;;;;19.60;67.00;;;;;;4983391;28;20024;-75
2022/03/26 14:08:02;;;;;;;;;;;19.70;63.30;;;;;;4999504;28;21434;-75
2022/03/26 14:10:32;;;;;;;;;;;19.50;62.90;;;;;;4961516;28;19944;-75
2022/03/26 14:12:59;;;;;;;;;;;19.10;62.70;;;;;;4999610;28;19929;-75
2022/03/26 14:15:26;;;;;;;;;;;19.30;62.90;;;;;;4993777;28;20434;-74
2022/03/26 14:17:52;;;;;;;;;;;19.30;64.40;;;;;;4990683;28;19951;-74
2022/03/26 14:20:17;;;;;;;;;;;19.10;63.60;;;;;;4980561;28;20649;-74
2022/03/26 14:22:46;;;;;;;;;;;19.00;66.80;;;;;;4999512;28;20131;-75
2022/03/26 14:25:12;;;;;;;;;;;19.40;64.00;;;;;;4978583;28;20013;-74
2022/03/26 14:27:38;;;;;;;;;;;19.20;63.80;;;;;;5004424;28;19937;-75
2022/03/26 14:30:03;;;;;;;;;;;19.20;67.20;;;;;;4995909;28;19929;-74
2022/03/26 14:32:29;;;;;;;;;;;18.70;66.20;;;;;;4968621;28;20856;-75
2022/03/26 14:34:55;;;;;;;;;;;18.80;62.10;;;;;;4978529;28;19929;-75